sensor_id;sensor_type;location;lat;lon;timestamp;temperature;humidity
2387;DHT22;49473;50.772;8.768;2023-04-28T00:00:05;10.80;99.90
2387;DHT22;49473;50.772;8.768;2023-04-28T00:02:33;10.80;99.90
2387;DHT22;49473;50.772;8.768;2023-04-28T00:05:00;10.80;99.90
2387;DHT22;49473;50.772;8.768;2023-04-28T00:07:27;10.80;99.90
2387;DHT22;49473;50.772;8.768;2023-04-28T00:09:53;10.90;99.90
2387;DHT22;49473;50.772;8.768;2023-04-28T00:12:21;10.70;99.90
2387;DHT22;49473;50.772;8.768;2023-04-28T00:14:49;10.60;99.90
2387;DHT22;49473;50.772;8.768;2023-04-28T00:17:16;10.60;99.90
2387;DHT22;49473;50.772;8.768;2023-04-28T00:19:43;10.40;99.90
2387;DHT22;49473;50.772;8.768;2023-04-28T00:22:09;10.40;99.90
2387;DHT22;49473;50.772;8.768;2023-04-28T00:24:36;10.50;99.90
2387;DHT22;49473;50.772;8.768;2023-04-28T00:27:03;10.40;99.90
2387;DHT22;49473;50.772;8.768;2023-04-28T00:29:29;10.60;99.90
2387;DHT22;49473;50.772;8.768;2023-04-28T00:31:58;10.60;99.90
2387;DHT22;49473;50.772;8.768;2023-04-28T00:34:24;10.50;99.90
2387;DHT22;49473;50.772;8.768;2023-04-28T00:36:51;10.50;99.90
2387;DHT22;49473;50.772;8.768;2023-04-28T00:39:18;10.60;99.90
2387;DHT22;49473;50.772;8.768;2023-04-28T00:41:46;10.60;99.90
2387;DHT22;49473;50.772;8.768;2023-04-28T00:44:13;10.50;99.90
2387;DHT22;49473;50.772;8.768;2023-04-28T00:46:40;10.60;99.90
2387;DHT22;49473;50.772;8.768;2023-04-28T00:49:08;10.50;99.90
2387;DHT22;49473;50.772;8.768;2023-04-28T00:51:35;10.30;99.90
2387;DHT22;49473;50.772;8.768;2023-04-28T00:54:03;10.20;99.90
2387;DHT22;49473;50.772;8.768;2023-04-28T00:56:31;10.20;99.90
2387;DHT22;49473;50.772;8.768;2023-04-28T00:58:58;10.10;99.90
2387;DHT22;49473;50.772;8.768;2023-04-28T01:01:25;10.00;99.90
2387;DHT22;49473;50.772;8.768;2023-04-28T01:03:51;10.00;99.90
2387;DHT22;49473;50.772;8.768;2023-04-28T01:06:20;10.10;99.90
2387;DHT22;49473;50.772;8.768;2023-04-28T01:08:48;10.10;99.90
2387;DHT22;49473;50.772;8.768;2023-04-28T01:11:15;10.00;99.90
2387;DHT22;49473;50.772;8.768;2023-04-28T01:13:42;9.90;99.90
2387;DHT22;49473;50.772;8.768;2023-04-28T01:16:09;9.90;99.90
2387;DHT22;49473;50.772;8.768;2023-04-28T01:18:36;9.80;99.90
2387;DHT22;49473;50.772;8.768;2023-04-28T01:21:03;9.60;99.90
2387;DHT22;49473;50.772;8.768;2023-04-28T01:23:31;9.40;99.90
2387;DHT22;49473;50.772;8.768;2023-04-28T01:25:59;9.40;99.90
2387;DHT22;49473;50.772;8.768;2023-04-28T01:28:26;9.60;99.90
2387;DHT22;49473;50.772;8.768;2023-04-28T01:30:53;9.70;99.90
2387;DHT22;49473;50.772;8.768;2023-04-28T01:33:20;9.60;99.90
2387;DHT22;49473;50.772;8.768;2023-04-28T01:35:47;9.60;99.90
2387;DHT22;49473;50.772;8.768;2023-04-28T01:38:14;9.60;99.90
2387;DHT22;49473;50.772;8.768;2023-04-28T01:40:41;9.60;99.90
2387;DHT22;49473;50.772;8.768;2023-04-28T01:43:09;9.60;99.90
2387;DHT22;49473;50.772;8.768;2023-04-28T01:45:35;9.70;99.90
2387;DHT22;49473;50.772;8.768;2023-04-28T01:48:02;9.80;99.90
2387;DHT22;49473;50.772;8.768;2023-04-28T01:50:29;9.80;99.90
2387;DHT22;49473;50.772;8.768;2023-04-28T01:52:56;9.70;99.90
2387;DHT22;49473;50.772;8.768;2023-04-28T01:55:23;9.50;99.90
2387;DHT22;49473;50.772;8.768;2023-04-28T01:57:49;9.40;99.90
2387;DHT22;49473;50.772;8.768;2023-04-28T02:00:18;9.40;99.90
2387;DHT22;49473;50.772;8.768;2023-04-28T02:02:45;9.40;99.90
2387;DHT22;49473;50.772;8.768;2023-04-28T02:05:12;9.50;99.90
2387;DHT22;49473;50.772;8.768;2023-04-28T02:07:38;9.60;99.90
2387;DHT22;49473;50.772;8.768;2023-04-28T02:10:06;9.60;99.90
2387;DHT22;49473;50.772;8.768;2023-04-28T02:12:33;9.60;99.90
2387;DHT22;49473;50.772;8.768;2023-04-28T02:15:00;9.50;99.90
2387;DHT22;49473;50.772;8.768;2023-04-28T02:17:30;9.50;99.90
2387;DHT22;49473;50.772;8.768;2023-04-28T02:19:57;9.40;99.90
2387;DHT22;49473;50.772;8.768;2023-04-28T02:22:24;9.50;99.90
2387;DHT22;49473;50.772;8.768;2023-04-28T02:24:51;9.50;99.90
2387;DHT22;49473;50.772;8.768;2023-04-28T02:27:18;9.60;99.90
2387;DHT22;49473;50.772;8.768;2023-04-28T02:29:45;9.60;99.90
2387;DHT22;49473;50.772;8.768;2023-04-28T02:32:11;9.60;99.90
2387;DHT22;49473;50.772;8.768;2023-04-28T02:34:40;9.60;99.90
2387;DHT22;49473;50.772;8.768;2023-04-28T02:37:06;9.60;99.90
2387;DHT22;49473;50.772;8.768;2023-04-28T02:39:33;9.60;99.90
2387;DHT22;49473;50.772;8.768;2023-04-28T02:42:00;9.60;99.90
2387;DHT22;49473;50.772;8.768;2023-04-28T02:44:30;9.70;99.90
2387;DHT22;49473;50.772;8.768;2023-04-28T02:46:57;9.60;99.90
2387;DHT22;49473;50.772;8.768;2023-04-28T02:49:23;9.50;99.90
2387;DHT22;49473;50.772;8.768;2023-04-28T02:51:51;9.30;99.90
2387;DHT22;49473;50.772;8.768;2023-04-28T02:54:18;9.20;99.90
2387;DHT22;49473;50.772;8.768;2023-04-28T02:56:52;9.10;99.90
2387;DHT22;49473;50.772;8.768;2023-04-28T02:59:18;9.00;99.90
2387;DHT22;49473;50.772;8.768;2023-04-28T03:01:45;9.10;99.90
2387;DHT22;49473;50.772;8.768;2023-04-28T03:04:12;9.00;99.90
2387;DHT22;49473;50.772;8.768;2023-04-28T03:06:39;8.90;99.90
2387;DHT22;49473;50.772;8.768;2023-04-28T03:09:07;8.90;99.90
2387;DHT22;49473;50.772;8.768;2023-04-28T03:11:34;8.90;99.90
2387;DHT22;49473;50.772;8.768;2023-04-28T03:14:01;8.80;99.90
2387;DHT22;49473;50.772;8.768;2023-04-28T03:16:27;8.80;99.90
2387;DHT22;49473;50.772;8.768;2023-04-28T03:18:54;8.70;99.90
2387;DHT22;49473;50.772;8.768;2023-04-28T03:21:21;8.70;99.90
2387;DHT22;49473;50.772;8.768;2023-04-28T03:23:48;8.70;99.90
2387;DHT22;49473;50.772;8.768;2023-04-28T03:26:16;8.70;99.90
2387;DHT22;49473;50.772;8.768;2023-04-28T03:28:42;8.70;99.90
2387;DHT22;49473;50.772;8.768;2023-04-28T03:31:09;8.60;99.90
2387;DHT22;49473;50.772;8.768;2023-04-28T03:33:36;8.50;99.90
2387;DHT22;49473;50.772;8.768;2023-04-28T03:36:04;8.50;99.90
2387;DHT22;49473;50.772;8.768;2023-04-28T03:38:31;8.50;99.90
2387;DHT22;49473;50.772;8.768;2023-04-28T03:40:58;8.50;99.90
2387;DHT22;49473;50.772;8.768;2023-04-28T03:43:26;8.40;99.90
2387;DHT22;49473;50.772;8.768;2023-04-28T03:45:53;8.40;99.90
2387;DHT22;49473;50.772;8.768;2023-04-28T03:48:19;8.30;99.90
2387;DHT22;49473;50.772;8.768;2023-04-28T03:50:46;8.20;99.90
2387;DHT22;49473;50.772;8.768;2023-04-28T03:53:13;8.10;99.90
2387;DHT22;49473;50.772;8.768;2023-04-28T03:55:40;8.10;99.90
2387;DHT22;49473;50.772;8.768;2023-04-28T03:58:06;8.10;99.90
2387;DHT22;49473;50.772;8.768;2023-04-28T04:00:34;8.20;99.90
2387;DHT22;49473;50.772;8.768;2023-04-28T04:03:01;8.10;99.90
2387;DHT22;49473;50.772;8.768;2023-04-28T04:05:28;8.10;99.90
2387;DHT22;49473;50.772;8.768;2023-04-28T04:07:55;8.20;99.90
2387;DHT22;49473;50.772;8.768;2023-04-28T04:10:22;8.30;99.90
2387;DHT22;49473;50.772;8.768;2023-04-28T04:12:49;8.40;99.90
2387;DHT22;49473;50.772;8.768;2023-04-28T04:15:15;8.30;99.90
2387;DHT22;49473;50.772;8.768;2023-04-28T04:17:44;8.20;99.90
2387;DHT22;49473;50.772;8.768;2023-04-28T04:20:11;8.10;99.90
2387;DHT22;49473;50.772;8.768;2023-04-28T04:22:37;8.10;99.90
2387;DHT22;49473;50.772;8.768;2023-04-28T04:25:05;8.20;99.90
2387;DHT22;49473;50.772;8.768;2023-04-28T04:27:32;8.40;99.90
2387;DHT22;49473;50.772;8.768;2023-04-28T04:29:58;8.40;99.90
2387;DHT22;49473;50.772;8.768;2023-04-28T04:32:25;8.40;99.90
2387;DHT22;49473;50.772;8.768;2023-04-28T04:34:53;8.40;99.90
2387;DHT22;49473;50.772;8.768;2023-04-28T04:37:21;8.50;99.90
2387;DHT22;49473;50.772;8.768;2023-04-28T04:39:48;8.60;99.90
2387;DHT22;49473;50.772;8.768;2023-04-28T04:42:15;8.60;99.90
2387;DHT22;49473;50.772;8.768;2023-04-28T04:44:42;8.60;99.90
2387;DHT22;49473;50.772;8.768;2023-04-28T04:47:08;8.50;99.90
2387;DHT22;49473;50.772;8.768;2023-04-28T04:49:35;8.60;99.90
2387;DHT22;49473;50.772;8.768;2023-04-28T04:52:03;8.70;99.90
2387;DHT22;49473;50.772;8.768;2023-04-28T04:54:31;8.60;99.90
2387;DHT22;49473;50.772;8.768;2023-04-28T04:56:58;8.70;99.90
2387;DHT22;49473;50.772;8.768;2023-04-28T04:59:26;8.70;99.90
2387;DHT22;49473;50.772;8.768;2023-04-28T05:01:52;8.60;99.90
2387;DHT22;49473;50.772;8.768;2023-04-28T05:04:19;8.60;99.90
2387;DHT22;49473;50.772;8.768;2023-04-28T05:06:46;8.60;99.90
2387;DHT22;49473;50.772;8.768;2023-04-28T05:09:14;8.60;99.90
2387;DHT22;49473;50.772;8.768;2023-04-28T05:11:41;8.60;99.90
2387;DHT22;49473;50.772;8.768;2023-04-28T05:14:08;8.60;99.90
2387;DHT22;49473;50.772;8.768;2023-04-28T05:16:35;8.60;99.90
2387;DHT22;49473;50.772;8.768;2023-04-28T05:19:01;8.70;99.90
2387;DHT22;49473;50.772;8.768;2023-04-28T05:21:28;8.70;99.90
2387;DHT22;49473;50.772;8.768;2023-04-28T05:23:55;8.80;99.90
2387;DHT22;49473;50.772;8.768;2023-04-28T05:26:23;8.80;99.90
2387;DHT22;49473;50.772;8.768;2023-04-28T05:28:50;8.90;99.90
2387;DHT22;49473;50.772;8.768;2023-04-28T05:31:17;8.90;99.90
2387;DHT22;49473;50.772;8.768;2023-04-28T05:33:44;9.00;99.90
2387;DHT22;49473;50.772;8.768;2023-04-28T05:36:11;8.80;99.90
2387;DHT22;49473;50.772;8.768;2023-04-28T05:38:38;8.80;99.90
2387;DHT22;49473;50.772;8.768;2023-04-28T05:41:04;8.60;99.90
2387;DHT22;49473;50.772;8.768;2023-04-28T05:43:32;8.70;99.90
2387;DHT22;49473;50.772;8.768;2023-04-28T05:45:59;8.80;99.90
2387;DHT22;49473;50.772;8.768;2023-04-28T05:48:26;8.80;99.90
2387;DHT22;49473;50.772;8.768;2023-04-28T05:50:53;8.90;99.90
2387;DHT22;49473;50.772;8.768;2023-04-28T05:53:20;8.90;99.90
2387;DHT22;49473;50.772;8.768;2023-04-28T05:55:46;9.00;99.90
2387;DHT22;49473;50.772;8.768;2023-04-28T05:58:13;9.00;99.90
2387;DHT22;49473;50.772;8.768;2023-04-28T06:00:41;9.10;99.90
2387;DHT22;49473;50.772;8.768;2023-04-28T06:03:08;9.00;99.90
2387;DHT22;49473;50.772;8.768;2023-04-28T06:05:35;8.90;99.90
2387;DHT22;49473;50.772;8.768;2023-04-28T06:08:02;9.10;99.90
2387;DHT22;49473;50.772;8.768;2023-04-28T06:10:29;9.30;99.90
2387;DHT22;49473;50.772;8.768;2023-04-28T06:12:56;9.40;99.90
2387;DHT22;49473;50.772;8.768;2023-04-28T06:15:23;9.40;99.90
2387;DHT22;49473;50.772;8.768;2023-04-28T06:17:51;9.50;99.90
2387;DHT22;49473;50.772;8.768;2023-04-28T06:20:18;9.40;99.90
2387;DHT22;49473;50.772;8.768;2023-04-28T06:22:45;9.40;99.90
2387;DHT22;49473;50.772;8.768;2023-04-28T06:25:12;9.40;99.90
2387;DHT22;49473;50.772;8.768;2023-04-28T06:27:39;9.50;99.90
2387;DHT22;49473;50.772;8.768;2023-04-28T06:30:06;9.50;99.90
2387;DHT22;49473;50.772;8.768;2023-04-28T06:32:33;9.60;99.90
2387;DHT22;49473;50.772;8.768;2023-04-28T06:35:02;9.40;99.90
2387;DHT22;49473;50.772;8.768;2023-04-28T06:37:28;9.50;99.90
2387;DHT22;49473;50.772;8.768;2023-04-28T06:39:55;9.50;99.90
2387;DHT22;49473;50.772;8.768;2023-04-28T06:42:22;9.50;99.90
2387;DHT22;49473;50.772;8.768;2023-04-28T06:44:48;9.50;99.90
2387;DHT22;49473;50.772;8.768;2023-04-28T06:47:15;9.60;99.90
2387;DHT22;49473;50.772;8.768;2023-04-28T06:49:42;9.60;99.90
2387;DHT22;49473;50.772;8.768;2023-04-28T06:52:11;9.60;99.90
2387;DHT22;49473;50.772;8.768;2023-04-28T06:54:38;9.60;99.90
2387;DHT22;49473;50.772;8.768;2023-04-28T06:57:05;9.60;99.90
2387;DHT22;49473;50.772;8.768;2023-04-28T06:59:32;9.60;99.90
2387;DHT22;49473;50.772;8.768;2023-04-28T07:01:59;9.50;99.90
2387;DHT22;49473;50.772;8.768;2023-04-28T07:04:26;9.60;99.90
2387;DHT22;49473;50.772;8.768;2023-04-28T07:06:53;9.80;99.90
2387;DHT22;49473;50.772;8.768;2023-04-28T07:09:21;9.90;99.90
2387;DHT22;49473;50.772;8.768;2023-04-28T07:11:48;9.80;99.90
2387;DHT22;49473;50.772;8.768;2023-04-28T07:14:14;9.80;99.90
2387;DHT22;49473;50.772;8.768;2023-04-28T07:16:41;9.80;99.90
2387;DHT22;49473;50.772;8.768;2023-04-28T07:19:08;9.80;99.90
2387;DHT22;49473;50.772;8.768;2023-04-28T07:21:35;9.60;99.90
2387;DHT22;49473;50.772;8.768;2023-04-28T07:24:02;9.50;99.90
2387;DHT22;49473;50.772;8.768;2023-04-28T07:26:30;9.40;99.90
2387;DHT22;49473;50.772;8.768;2023-04-28T07:28:59;9.50;99.90
2387;DHT22;49473;50.772;8.768;2023-04-28T07:31:26;9.70;99.90
2387;DHT22;49473;50.772;8.768;2023-04-28T07:33:53;9.80;99.90
2387;DHT22;49473;50.772;8.768;2023-04-28T07:36:20;9.90;99.90
2387;DHT22;49473;50.772;8.768;2023-04-28T07:38:47;9.90;99.90
2387;DHT22;49473;50.772;8.768;2023-04-28T07:41:16;10.00;99.90
2387;DHT22;49473;50.772;8.768;2023-04-28T07:43:45;10.10;99.90
2387;DHT22;49473;50.772;8.768;2023-04-28T07:46:13;10.20;99.90
2387;DHT22;49473;50.772;8.768;2023-04-28T07:48:40;10.10;99.90
2387;DHT22;49473;50.772;8.768;2023-04-28T07:51:07;10.10;99.90
2387;DHT22;49473;50.772;8.768;2023-04-28T07:53:34;10.00;99.90
2387;DHT22;49473;50.772;8.768;2023-04-28T07:56:01;10.10;99.90
2387;DHT22;49473;50.772;8.768;2023-04-28T07:58:28;10.00;99.90
2387;DHT22;49473;50.772;8.768;2023-04-28T08:00:56;10.10;99.90
2387;DHT22;49473;50.772;8.768;2023-04-28T08:03:23;10.20;99.90
2387;DHT22;49473;50.772;8.768;2023-04-28T08:05:50;10.30;99.90
2387;DHT22;49473;50.772;8.768;2023-04-28T08:08:16;10.30;99.90
2387;DHT22;49473;50.772;8.768;2023-04-28T08:10:43;10.40;99.90
2387;DHT22;49473;50.772;8.768;2023-04-28T08:13:10;10.40;99.90
2387;DHT22;49473;50.772;8.768;2023-04-28T08:15:37;10.60;99.90
2387;DHT22;49473;50.772;8.768;2023-04-28T08:18:06;10.70;99.90
2387;DHT22;49473;50.772;8.768;2023-04-28T08:20:33;10.80;99.90
2387;DHT22;49473;50.772;8.768;2023-04-28T08:23:00;10.90;99.90
2387;DHT22;49473;50.772;8.768;2023-04-28T08:25:26;10.80;99.90
2387;DHT22;49473;50.772;8.768;2023-04-28T08:27:53;10.80;99.90
2387;DHT22;49473;50.772;8.768;2023-04-28T08:30:21;10.70;99.90
2387;DHT22;49473;50.772;8.768;2023-04-28T08:32:47;10.40;99.90
2387;DHT22;49473;50.772;8.768;2023-04-28T08:35:16;10.40;99.90
2387;DHT22;49473;50.772;8.768;2023-04-28T08:37:43;10.60;99.90
2387;DHT22;49473;50.772;8.768;2023-04-28T08:40:11;10.70;99.90
2387;DHT22;49473;50.772;8.768;2023-04-28T08:42:38;10.80;99.90
2387;DHT22;49473;50.772;8.768;2023-04-28T08:45:06;10.70;99.90
2387;DHT22;49473;50.772;8.768;2023-04-28T08:47:35;10.80;99.90
2387;DHT22;49473;50.772;8.768;2023-04-28T08:50:03;10.70;99.90
2387;DHT22;49473;50.772;8.768;2023-04-28T08:52:32;10.90;99.90
2387;DHT22;49473;50.772;8.768;2023-04-28T08:55:00;11.10;99.90
2387;DHT22;49473;50.772;8.768;2023-04-28T08:57:34;11.20;99.90
2387;DHT22;49473;50.772;8.768;2023-04-28T09:00:04;11.30;99.90
2387;DHT22;49473;50.772;8.768;2023-04-28T09:02:31;11.40;99.90
2387;DHT22;49473;50.772;8.768;2023-04-28T09:04:57;11.40;99.90
2387;DHT22;49473;50.772;8.768;2023-04-28T09:07:24;11.40;99.90
2387;DHT22;49473;50.772;8.768;2023-04-28T09:10:14;11.40;99.90
2387;DHT22;49473;50.772;8.768;2023-04-28T09:12:41;11.40;99.90
2387;DHT22;49473;50.772;8.768;2023-04-28T09:15:08;11.30;99.90
2387;DHT22;49473;50.772;8.768;2023-04-28T09:17:46;11.40;99.90
2387;DHT22;49473;50.772;8.768;2023-04-28T09:20:19;11.40;99.90
2387;DHT22;49473;50.772;8.768;2023-04-28T09:22:48;11.60;99.90
2387;DHT22;49473;50.772;8.768;2023-04-28T09:25:19;11.80;99.90
2387;DHT22;49473;50.772;8.768;2023-04-28T09:27:47;11.80;99.90
2387;DHT22;49473;50.772;8.768;2023-04-28T09:30:14;11.70;99.90
2387;DHT22;49473;50.772;8.768;2023-04-28T09:32:41;11.60;99.90
2387;DHT22;49473;50.772;8.768;2023-04-28T09:35:08;11.40;99.90
2387;DHT22;49473;50.772;8.768;2023-04-28T09:37:35;11.40;99.90
2387;DHT22;49473;50.772;8.768;2023-04-28T09:40:05;11.30;99.90
2387;DHT22;49473;50.772;8.768;2023-04-28T09:42:34;11.10;99.90
2387;DHT22;49473;50.772;8.768;2023-04-28T09:45:02;11.20;99.90
2387;DHT22;49473;50.772;8.768;2023-04-28T09:47:31;11.00;99.90
2387;DHT22;49473;50.772;8.768;2023-04-28T09:50:01;11.00;99.90
2387;DHT22;49473;50.772;8.768;2023-04-28T09:52:28;11.10;99.90
2387;DHT22;49473;50.772;8.768;2023-04-28T09:54:55;11.30;99.90
2387;DHT22;49473;50.772;8.768;2023-04-28T09:57:23;11.50;99.90
2387;DHT22;49473;50.772;8.768;2023-04-28T09:59:52;11.50;99.90
2387;DHT22;49473;50.772;8.768;2023-04-28T10:02:20;11.60;99.90
2387;DHT22;49473;50.772;8.768;2023-04-28T10:04:48;11.70;99.90
2387;DHT22;49473;50.772;8.768;2023-04-28T10:07:16;11.60;99.90
2387;DHT22;49473;50.772;8.768;2023-04-28T10:09:45;11.60;99.90
2387;DHT22;49473;50.772;8.768;2023-04-28T10:12:14;11.80;99.90
2387;DHT22;49473;50.772;8.768;2023-04-28T10:14:41;11.80;99.90
2387;DHT22;49473;50.772;8.768;2023-04-28T10:17:12;11.70;99.90
2387;DHT22;49473;50.772;8.768;2023-04-28T10:19:39;11.70;99.90
2387;DHT22;49473;50.772;8.768;2023-04-28T10:22:20;11.80;99.90
2387;DHT22;49473;50.772;8.768;2023-04-28T10:25:01;11.70;99.90
2387;DHT22;49473;50.772;8.768;2023-04-28T10:27:34;11.70;99.90
2387;DHT22;49473;50.772;8.768;2023-04-28T10:30:12;11.80;99.90
2387;DHT22;49473;50.772;8.768;2023-04-28T10:32:41;11.90;99.90
2387;DHT22;49473;50.772;8.768;2023-04-28T10:38:17;12.10;99.90
2387;DHT22;49473;50.772;8.768;2023-04-28T10:40:46;12.20;99.90
2387;DHT22;49473;50.772;8.768;2023-04-28T10:43:32;12.50;99.90
2387;DHT22;49473;50.772;8.768;2023-04-28T10:46:00;13.00;99.90
2387;DHT22;49473;50.772;8.768;2023-04-28T10:48:55;13.10;99.90
2387;DHT22;49473;50.772;8.768;2023-04-28T10:51:32;13.20;99.90
2387;DHT22;49473;50.772;8.768;2023-04-28T10:54:25;13.20;99.90
2387;DHT22;49473;50.772;8.768;2023-04-28T10:57:20;13.50;99.90
2387;DHT22;49473;50.772;8.768;2023-04-28T10:59:48;13.60;99.90
2387;DHT22;49473;50.772;8.768;2023-04-28T11:02:40;13.90;99.90
2387;DHT22;49473;50.772;8.768;2023-04-28T11:05:15;13.90;99.90
2387;DHT22;49473;50.772;8.768;2023-04-28T11:11:14;14.30;99.90
2387;DHT22;49473;50.772;8.768;2023-04-28T11:13:41;14.20;99.90
2387;DHT22;49473;50.772;8.768;2023-04-28T11:16:13;14.20;99.90
2387;DHT22;49473;50.772;8.768;2023-04-28T11:18:49;13.80;99.90
2387;DHT22;49473;50.772;8.768;2023-04-28T11:21:18;13.50;99.90
2387;DHT22;49473;50.772;8.768;2023-04-28T11:23:45;13.30;99.90
2387;DHT22;49473;50.772;8.768;2023-04-28T11:26:12;13.20;99.90
2387;DHT22;49473;50.772;8.768;2023-04-28T11:28:46;13.20;99.90
2387;DHT22;49473;50.772;8.768;2023-04-28T11:31:14;13.30;99.90
2387;DHT22;49473;50.772;8.768;2023-04-28T11:33:46;13.40;99.90
2387;DHT22;49473;50.772;8.768;2023-04-28T11:36:31;13.50;99.90
2387;DHT22;49473;50.772;8.768;2023-04-28T11:39:00;13.50;99.90
2387;DHT22;49473;50.772;8.768;2023-04-28T11:41:29;13.30;99.90
2387;DHT22;49473;50.772;8.768;2023-04-28T11:43:56;13.10;99.90
2387;DHT22;49473;50.772;8.768;2023-04-28T11:46:24;13.00;99.90
2387;DHT22;49473;50.772;8.768;2023-04-28T11:48:59;13.10;99.90
2387;DHT22;49473;50.772;8.768;2023-04-28T11:51:36;13.20;99.90
2387;DHT22;49473;50.772;8.768;2023-04-28T11:54:04;13.30;99.90
2387;DHT22;49473;50.772;8.768;2023-04-28T11:56:37;13.40;99.90
2387;DHT22;49473;50.772;8.768;2023-04-28T11:59:07;13.50;99.90
2387;DHT22;49473;50.772;8.768;2023-04-28T12:01:44;13.70;99.90
2387;DHT22;49473;50.772;8.768;2023-04-28T12:04:11;13.90;99.90
2387;DHT22;49473;50.772;8.768;2023-04-28T12:06:40;14.10;99.90
2387;DHT22;49473;50.772;8.768;2023-04-28T12:09:17;14.00;99.90
2387;DHT22;49473;50.772;8.768;2023-04-28T12:11:55;14.10;99.90
2387;DHT22;49473;50.772;8.768;2023-04-28T12:14:25;14.30;99.90
2387;DHT22;49473;50.772;8.768;2023-04-28T12:16:55;14.50;99.90
2387;DHT22;49473;50.772;8.768;2023-04-28T12:19:22;14.60;99.90
2387;DHT22;49473;50.772;8.768;2023-04-28T12:22:02;14.70;99.90
2387;DHT22;49473;50.772;8.768;2023-04-28T12:24:29;14.80;99.90
2387;DHT22;49473;50.772;8.768;2023-04-28T12:27:14;14.90;99.90
2387;DHT22;49473;50.772;8.768;2023-04-28T12:29:43;15.00;99.90
2387;DHT22;49473;50.772;8.768;2023-04-28T12:32:11;15.00;99.90
2387;DHT22;49473;50.772;8.768;2023-04-28T12:34:39;14.90;99.90
2387;DHT22;49473;50.772;8.768;2023-04-28T12:37:07;14.90;99.90
2387;DHT22;49473;50.772;8.768;2023-04-28T12:39:35;15.10;99.90
2387;DHT22;49473;50.772;8.768;2023-04-28T12:42:03;15.20;99.90
2387;DHT22;49473;50.772;8.768;2023-04-28T12:44:34;15.40;99.90
2387;DHT22;49473;50.772;8.768;2023-04-28T12:47:02;15.60;99.90
2387;DHT22;49473;50.772;8.768;2023-04-28T12:49:29;15.70;99.90
2387;DHT22;49473;50.772;8.768;2023-04-28T12:51:56;16.00;99.90
2387;DHT22;49473;50.772;8.768;2023-04-28T12:54:24;16.20;99.90
2387;DHT22;49473;50.772;8.768;2023-04-28T12:56:51;16.90;99.90
2387;DHT22;49473;50.772;8.768;2023-04-28T12:59:19;17.20;99.90
2387;DHT22;49473;50.772;8.768;2023-04-28T13:01:45;17.20;99.90
2387;DHT22;49473;50.772;8.768;2023-04-28T13:04:12;17.10;99.90
2387;DHT22;49473;50.772;8.768;2023-04-28T13:06:39;16.90;99.90
2387;DHT22;49473;50.772;8.768;2023-04-28T13:09:08;16.90;99.90
2387;DHT22;49473;50.772;8.768;2023-04-28T13:11:37;17.00;99.90
2387;DHT22;49473;50.772;8.768;2023-04-28T13:14:03;17.00;99.90
2387;DHT22;49473;50.772;8.768;2023-04-28T13:16:30;17.00;99.90
2387;DHT22;49473;50.772;8.768;2023-04-28T13:18:57;17.20;99.90
2387;DHT22;49473;50.772;8.768;2023-04-28T13:21:24;17.40;99.90
2387;DHT22;49473;50.772;8.768;2023-04-28T13:23:51;18.10;99.90
2387;DHT22;49473;50.772;8.768;2023-04-28T13:26:18;18.60;99.90
2387;DHT22;49473;50.772;8.768;2023-04-28T13:28:46;18.70;99.90
2387;DHT22;49473;50.772;8.768;2023-04-28T13:31:13;18.70;99.90
2387;DHT22;49473;50.772;8.768;2023-04-28T13:33:40;18.60;99.90
2387;DHT22;49473;50.772;8.768;2023-04-28T13:36:07;18.60;99.90
2387;DHT22;49473;50.772;8.768;2023-04-28T13:38:34;19.20;99.90
2387;DHT22;49473;50.772;8.768;2023-04-28T13:41:01;19.80;99.90
2387;DHT22;49473;50.772;8.768;2023-04-28T13:43:28;19.70;99.90
2387;DHT22;49473;50.772;8.768;2023-04-28T13:45:56;19.90;99.90
2387;DHT22;49473;50.772;8.768;2023-04-28T13:48:23;20.00;99.90
2387;DHT22;49473;50.772;8.768;2023-04-28T13:50:52;20.60;99.90
2387;DHT22;49473;50.772;8.768;2023-04-28T13:53:18;20.60;99.90
2387;DHT22;49473;50.772;8.768;2023-04-28T13:55:48;20.10;99.90
2387;DHT22;49473;50.772;8.768;2023-04-28T13:58:15;19.70;99.90
2387;DHT22;49473;50.772;8.768;2023-04-28T14:00:42;19.20;99.90
2387;DHT22;49473;50.772;8.768;2023-04-28T14:03:10;19.00;99.90
2387;DHT22;49473;50.772;8.768;2023-04-28T14:05:37;18.80;99.90
2387;DHT22;49473;50.772;8.768;2023-04-28T14:08:04;18.20;99.90
2387;DHT22;49473;50.772;8.768;2023-04-28T14:10:31;18.00;99.90
2387;DHT22;49473;50.772;8.768;2023-04-28T14:12:58;17.80;99.90
2387;DHT22;49473;50.772;8.768;2023-04-28T14:15:24;17.50;99.90
2387;DHT22;49473;50.772;8.768;2023-04-28T14:17:52;17.30;99.90
2387;DHT22;49473;50.772;8.768;2023-04-28T14:20:20;17.40;99.90
2387;DHT22;49473;50.772;8.768;2023-04-28T14:22:46;17.40;99.90
2387;DHT22;49473;50.772;8.768;2023-04-28T14:25:13;17.50;99.90
2387;DHT22;49473;50.772;8.768;2023-04-28T14:27:40;17.60;99.90
2387;DHT22;49473;50.772;8.768;2023-04-28T14:30:08;17.90;99.90
2387;DHT22;49473;50.772;8.768;2023-04-28T14:32:34;18.00;99.90
2387;DHT22;49473;50.772;8.768;2023-04-28T14:35:03;18.00;99.90
2387;DHT22;49473;50.772;8.768;2023-04-28T14:37:32;18.00;99.90
2387;DHT22;49473;50.772;8.768;2023-04-28T14:39:59;18.30;99.90
2387;DHT22;49473;50.772;8.768;2023-04-28T14:42:27;18.50;99.90
2387;DHT22;49473;50.772;8.768;2023-04-28T14:44:55;18.60;99.90
2387;DHT22;49473;50.772;8.768;2023-04-28T14:47:22;18.40;99.90
2387;DHT22;49473;50.772;8.768;2023-04-28T14:49:49;18.00;99.90
2387;DHT22;49473;50.772;8.768;2023-04-28T14:52:17;17.80;99.90
2387;DHT22;49473;50.772;8.768;2023-04-28T14:54:45;17.60;99.90
2387;DHT22;49473;50.772;8.768;2023-04-28T14:57:12;17.60;99.90
2387;DHT22;49473;50.772;8.768;2023-04-28T14:59:39;17.70;99.90
2387;DHT22;49473;50.772;8.768;2023-04-28T15:02:06;17.50;99.90
2387;DHT22;49473;50.772;8.768;2023-04-28T15:04:34;17.40;99.90
2387;DHT22;49473;50.772;8.768;2023-04-28T15:07:03;17.40;99.90
2387;DHT22;49473;50.772;8.768;2023-04-28T15:09:30;17.20;99.90
2387;DHT22;49473;50.772;8.768;2023-04-28T15:11:58;17.20;99.90
2387;DHT22;49473;50.772;8.768;2023-04-28T15:14:24;17.00;99.90
2387;DHT22;49473;50.772;8.768;2023-04-28T15:16:51;17.00;99.90
2387;DHT22;49473;50.772;8.768;2023-04-28T15:19:18;17.00;99.90
2387;DHT22;49473;50.772;8.768;2023-04-28T15:21:45;17.00;99.90
2387;DHT22;49473;50.772;8.768;2023-04-28T15:24:13;16.90;99.90
2387;DHT22;49473;50.772;8.768;2023-04-28T15:26:40;17.00;99.90
2387;DHT22;49473;50.772;8.768;2023-04-28T15:29:08;17.00;99.90
2387;DHT22;49473;50.772;8.768;2023-04-28T15:31:34;17.30;99.90
2387;DHT22;49473;50.772;8.768;2023-04-28T15:34:01;17.50;99.90
2387;DHT22;49473;50.772;8.768;2023-04-28T15:36:28;17.40;99.90
2387;DHT22;49473;50.772;8.768;2023-04-28T15:38:55;17.20;99.90
2387;DHT22;49473;50.772;8.768;2023-04-28T15:41:22;17.10;99.90
2387;DHT22;49473;50.772;8.768;2023-04-28T15:43:49;17.50;99.90
2387;DHT22;49473;50.772;8.768;2023-04-28T15:46:17;17.80;99.90
2387;DHT22;49473;50.772;8.768;2023-04-28T15:48:44;17.80;99.90
2387;DHT22;49473;50.772;8.768;2023-04-28T15:51:10;17.60;99.90
2387;DHT22;49473;50.772;8.768;2023-04-28T15:53:37;17.50;99.90
2387;DHT22;49473;50.772;8.768;2023-04-28T15:56:04;17.60;99.90
2387;DHT22;49473;50.772;8.768;2023-04-28T15:58:31;17.50;99.90
2387;DHT22;49473;50.772;8.768;2023-04-28T16:00:58;17.40;99.90
2387;DHT22;49473;50.772;8.768;2023-04-28T16:03:26;17.30;99.90